createdAt,value
2018-04-29T00:00:57.081Z,4.33
2018-04-29T00:03:24.600Z,4.63
2018-04-29T00:05:52.137Z,4.90
2018-04-29T00:08:19.659Z,5.07
2018-04-29T00:10:47.201Z,5.00
2018-04-29T00:13:14.748Z,5.17
2018-04-29T00:15:42.276Z,4.80
2018-04-29T00:18:09.816Z,5.23
2018-04-29T00:20:37.353Z,6.07
2018-04-29T00:23:04.897Z,4.87
2018-04-29T00:25:32.444Z,4.90
2018-04-29T00:27:59.961Z,5.30
2018-04-29T00:30:27.491Z,4.60
2018-04-29T00:32:55.090Z,4.57
2018-04-29T00:35:22.586Z,4.93
2018-04-29T00:37:50.113Z,5.00
2018-04-29T00:40:17.658Z,4.73
2018-04-29T00:42:45.188Z,4.37
2018-04-29T00:45:12.720Z,4.97
2018-04-29T00:47:40.236Z,4.37
2018-04-29T00:50:07.768Z,5.37
2018-04-29T00:52:35.296Z,5.27
2018-04-29T00:55:02.821Z,5.30
2018-04-29T00:57:30.344Z,5.03
2018-04-29T00:59:57.873Z,5.50
2018-04-29T01:02:25.411Z,5.07
2018-04-29T01:04:52.945Z,5.30
2018-04-29T01:07:20.464Z,5.73
2018-04-29T01:09:47.984Z,5.33
2018-04-29T01:12:15.498Z,4.97
2018-04-29T01:14:43.032Z,6.13
2018-04-29T01:17:10.548Z,5.37
2018-04-29T01:19:38.075Z,5.87
2018-04-29T01:22:05.605Z,5.17
2018-04-29T01:24:33.129Z,5.73
2018-04-29T01:27:00.654Z,5.80
2018-04-29T01:29:28.182Z,5.87
2018-04-29T01:31:55.700Z,5.60
2018-04-29T01:34:23.228Z,5.90
2018-04-29T01:36:50.759Z,6.40
2018-04-29T01:39:18.281Z,5.87
2018-04-29T01:41:45.813Z,6.20
2018-04-29T01:44:13.332Z,5.90
2018-04-29T01:46:40.858Z,6.10
2018-04-29T01:49:08.372Z,5.87
2018-04-29T01:51:35.982Z,6.03
2018-04-29T01:54:03.442Z,5.53
2018-04-29T01:56:30.967Z,6.40
2018-04-29T01:58:58.480Z,5.87
2018-04-29T02:01:26.012Z,5.90
2018-04-29T02:03:53.530Z,6.07
2018-04-29T02:06:21.046Z,6.20
2018-04-29T02:08:48.598Z,6.13
2018-04-29T02:11:16.121Z,6.13
2018-04-29T02:13:43.643Z,6.03
2018-04-29T02:16:11.164Z,6.70
2018-04-29T02:18:38.724Z,5.33
2018-04-29T02:21:06.228Z,6.17
2018-04-29T02:23:33.754Z,6.90
2018-04-29T02:26:01.275Z,6.27
2018-04-29T02:28:28.801Z,6.83
2018-04-29T02:30:56.319Z,5.67
2018-04-29T02:33:23.848Z,6.53
2018-04-29T02:35:51.376Z,6.70
2018-04-29T02:38:18.903Z,7.63
2018-04-29T02:40:46.436Z,7.17
2018-04-29T02:43:13.960Z,6.70
2018-04-29T02:45:41.491Z,6.83
2018-04-29T02:48:09.033Z,5.97
2018-04-29T02:50:36.568Z,6.50
2018-04-29T02:53:04.103Z,6.13
2018-04-29T02:55:31.625Z,6.67
2018-04-29T02:57:59.173Z,6.37
2018-04-29T03:00:26.702Z,6.50
2018-04-29T03:02:54.237Z,6.43
2018-04-29T03:05:21.793Z,6.70
2018-04-29T03:07:49.317Z,6.97
2018-04-29T03:10:16.873Z,6.47
2018-04-29T03:12:44.404Z,6.97
2018-04-29T03:15:11.928Z,5.80
2018-04-29T03:17:39.476Z,6.87
2018-04-29T03:20:07.061Z,6.10
2018-04-29T03:22:34.597Z,6.90
2018-04-29T03:25:02.129Z,6.50
2018-04-29T03:27:29.656Z,6.20
2018-04-29T03:29:57.182Z,6.47
2018-04-29T03:32:24.703Z,6.80
2018-04-29T03:34:52.225Z,7.40
2018-04-29T03:37:19.765Z,7.00
2018-04-29T03:39:47.359Z,7.50
2018-04-29T03:42:14.893Z,6.67
2018-04-29T03:44:42.418Z,7.70
2018-04-29T03:47:09.947Z,7.57
2018-04-29T03:49:37.556Z,6.70
2018-04-29T03:52:05.112Z,5.90
2018-04-29T03:54:32.657Z,6.87
2018-04-29T03:57:11.917Z,6.90
2018-04-29T03:59:51.215Z,7.40
2018-04-29T04:02:30.741Z,7.00
2018-04-29T04:04:58.211Z,7.30
2018-04-29T04:07:25.734Z,7.13
2018-04-29T04:09:53.273Z,7.23
2018-04-29T04:12:20.796Z,7.07
2018-04-29T04:14:48.320Z,7.80
2018-04-29T04:17:15.849Z,6.87
2018-04-29T04:19:43.364Z,7.90
2018-04-29T04:22:10.901Z,8.60
2018-04-29T04:24:38.426Z,7.90
2018-04-29T04:27:05.949Z,7.17
2018-04-29T04:29:33.477Z,7.63
2018-04-29T04:32:00.991Z,7.50
2018-04-29T04:34:28.524Z,6.97
2018-04-29T04:36:56.115Z,6.70
2018-04-29T04:39:23.615Z,7.53
2018-04-29T04:41:51.143Z,8.27
2018-04-29T04:44:18.668Z,7.90
2018-04-29T04:46:46.193Z,8.03
2018-04-29T04:49:13.724Z,7.70
2018-04-29T04:51:41.240Z,8.00
2018-04-29T04:54:08.770Z,8.30
2018-04-29T04:56:36.289Z,8.73
2018-04-29T04:59:03.827Z,7.70
2018-04-29T05:01:31.348Z,8.87
2018-04-29T05:03:58.864Z,8.70
2018-04-29T05:06:26.389Z,8.70
2018-04-29T05:08:53.909Z,8.70
2018-04-29T05:11:21.442Z,9.10
2018-04-29T05:13:48.982Z,8.43
2018-04-29T05:16:16.529Z,8.47
2018-04-29T05:18:44.065Z,9.03
2018-04-29T05:21:11.592Z,8.83
2018-04-29T05:23:39.111Z,9.80
2018-04-29T05:26:06.623Z,10.37
2018-04-29T05:28:34.168Z,10.17
2018-04-29T05:31:01.685Z,9.30
2018-04-29T05:33:29.221Z,9.23
2018-04-29T05:35:56.746Z,9.07
2018-04-29T05:38:24.275Z,9.43
2018-04-29T05:40:51.806Z,7.90
2018-04-29T05:43:19.332Z,8.90
2018-04-29T05:45:46.847Z,8.53
2018-04-29T05:48:14.374Z,8.57
2018-04-29T05:50:41.893Z,8.43
2018-04-29T05:53:09.425Z,9.10
2018-04-29T05:55:36.952Z,8.13
2018-04-29T05:58:04.498Z,8.83
2018-04-29T06:00:32.032Z,8.10
2018-04-29T06:02:59.565Z,8.30
2018-04-29T06:05:27.091Z,7.53
2018-04-29T06:07:54.616Z,7.43
2018-04-29T06:10:22.143Z,7.17
2018-04-29T06:12:49.669Z,7.80
2018-04-29T06:15:18.000Z,7.00
2018-04-29T06:17:45.539Z,7.17
2018-04-29T06:20:13.065Z,7.50
2018-04-29T06:22:40.580Z,7.33
2018-04-29T06:25:08.104Z,6.67
2018-04-29T06:27:35.623Z,5.97
2018-04-29T06:30:03.146Z,6.50
2018-04-29T06:32:30.684Z,5.67
2018-04-29T06:34:58.221Z,6.30
2018-04-29T06:37:25.748Z,5.80
2018-04-29T06:39:53.264Z,5.30
2018-04-29T06:42:20.792Z,5.60
2018-04-29T06:44:48.313Z,5.27
2018-04-29T06:47:16.024Z,5.03
2018-04-29T06:49:43.548Z,5.23
2018-04-29T06:52:11.087Z,4.80
2018-04-29T06:54:38.632Z,4.53
2018-04-29T06:57:06.159Z,4.10
2018-04-29T06:59:33.718Z,4.00
2018-04-29T07:02:01.253Z,3.80
2018-04-29T07:04:28.787Z,3.77
2018-04-29T07:06:56.313Z,3.83
2018-04-29T07:09:23.828Z,3.80
2018-04-29T07:11:51.349Z,4.27
2018-04-29T07:14:18.875Z,3.70
2018-04-29T07:16:46.407Z,3.50
2018-04-29T07:19:13.988Z,4.27
2018-04-29T07:21:41.504Z,4.53
2018-04-29T07:24:09.108Z,3.23
2018-04-29T07:26:36.628Z,3.97
2018-04-29T07:29:04.155Z,3.63
2018-04-29T07:31:31.674Z,3.40
2018-04-29T07:33:59.295Z,3.37
2018-04-29T07:36:26.812Z,3.03
2018-04-29T07:38:54.339Z,3.67
2018-04-29T07:41:22.035Z,2.67
2018-04-29T07:43:49.593Z,2.93
2018-04-29T07:46:17.119Z,3.47
2018-04-29T07:48:44.679Z,2.77
2018-04-29T07:51:12.230Z,3.50
2018-04-29T07:53:39.837Z,2.73
2018-04-29T07:56:07.347Z,2.90
2018-04-29T07:58:34.863Z,2.83
2018-04-29T08:01:02.384Z,3.30
2018-04-29T08:03:29.904Z,2.70
2018-04-29T08:05:57.429Z,2.67
2018-04-29T08:08:24.956Z,3.00
2018-04-29T08:10:52.471Z,2.60
2018-04-29T08:13:19.995Z,2.50
2018-04-29T08:15:47.598Z,3.37
2018-04-29T08:18:15.065Z,2.50
2018-04-29T08:20:42.593Z,3.07
2018-04-29T08:23:10.115Z,2.50
2018-04-29T08:25:37.636Z,2.40
2018-04-29T08:28:05.162Z,3.53
2018-04-29T08:30:32.696Z,2.80
2018-04-29T08:33:00.214Z,3.03
2018-04-29T08:35:27.846Z,3.13
2018-04-29T08:37:55.355Z,3.10
2018-04-29T08:40:22.890Z,2.90
2018-04-29T08:42:50.425Z,2.77
2018-04-29T08:45:17.946Z,2.73
2018-04-29T08:47:45.469Z,2.53
2018-04-29T08:50:13.176Z,3.07
2018-04-29T08:52:40.700Z,2.97
2018-04-29T08:55:08.217Z,1.90
2018-04-29T08:57:35.743Z,2.30
2018-04-29T09:00:03.265Z,2.33
2018-04-29T09:02:30.896Z,2.17
2018-04-29T09:04:58.428Z,1.65
2018-04-29T09:07:25.959Z,3.12
2018-04-29T09:09:53.583Z,2.00
2018-04-29T09:12:21.110Z,2.22
2018-04-29T09:14:48.650Z,1.83
2018-04-29T09:17:16.189Z,2.17
2018-04-29T09:19:43.701Z,1.92
2018-04-29T09:22:11.228Z,1.90
2018-04-29T09:24:38.771Z,2.20
2018-04-29T09:27:06.300Z,1.85
2018-04-29T09:29:33.821Z,1.80
2018-04-29T09:32:01.350Z,1.90
2018-04-29T09:34:28.878Z,2.15
2018-04-29T09:36:56.457Z,1.95
2018-04-29T09:39:23.956Z,2.15
2018-04-29T09:41:51.553Z,1.85
2018-04-29T09:44:19.080Z,1.98
2018-04-29T09:46:46.596Z,2.00
2018-04-29T09:49:14.119Z,1.98
2018-04-29T09:51:41.648Z,2.00
2018-04-29T09:54:09.176Z,2.12
2018-04-29T09:56:36.745Z,2.10
2018-04-29T09:59:04.294Z,2.50
2018-04-29T10:01:35.778Z,2.10
2018-04-29T10:04:03.311Z,2.47
2018-04-29T10:06:30.877Z,2.75
2018-04-29T10:08:58.396Z,2.28
2018-04-29T10:11:25.916Z,2.55
2018-04-29T10:13:53.462Z,2.00
2018-04-29T10:16:20.986Z,1.70
2018-04-29T10:18:48.555Z,1.85
2018-04-29T10:21:16.067Z,1.65
2018-04-29T10:23:43.599Z,2.10
2018-04-29T10:26:11.134Z,2.28
2018-04-29T10:28:38.658Z,2.10
2018-04-29T10:31:06.187Z,1.80
2018-04-29T10:33:33.720Z,1.70
2018-04-29T10:36:01.249Z,1.98
2018-04-29T10:38:28.780Z,1.83
2018-04-29T10:40:56.302Z,1.92
2018-04-29T10:43:23.833Z,1.70
2018-04-29T10:45:51.361Z,1.90
2018-04-29T10:48:18.877Z,1.92
2018-04-29T10:50:46.403Z,1.95
2018-04-29T10:53:13.932Z,8.45
2018-04-29T10:55:41.461Z,2.20
2018-04-29T10:58:08.972Z,2.10
2018-04-29T11:00:36.498Z,1.75
2018-04-29T11:03:04.029Z,1.95
2018-04-29T11:05:31.559Z,1.73
2018-04-29T11:07:59.088Z,2.30
2018-04-29T11:10:26.613Z,2.58
2018-04-29T11:12:54.137Z,2.30
2018-04-29T11:15:21.669Z,2.47
2018-04-29T11:17:49.184Z,2.25
2018-04-29T11:20:16.713Z,2.30
2018-04-29T11:22:44.241Z,2.80
2018-04-29T11:25:11.768Z,2.40
2018-04-29T11:27:39.283Z,2.43
2018-04-29T11:30:06.809Z,2.30
2018-04-29T11:32:34.337Z,2.63
2018-04-29T11:35:01.856Z,2.40
2018-04-29T11:37:29.374Z,2.70
2018-04-29T11:39:56.891Z,3.27
2018-04-29T11:42:24.419Z,3.07
2018-04-29T11:44:51.935Z,2.83
2018-04-29T11:47:19.464Z,2.60
2018-04-29T11:49:46.998Z,2.60
2018-04-29T11:52:14.513Z,3.17
2018-04-29T11:54:42.152Z,3.40
2018-04-29T11:57:09.675Z,2.50
2018-04-29T11:59:37.193Z,3.60
2018-04-29T12:02:04.721Z,2.67
2018-04-29T12:04:32.236Z,2.73
2018-04-29T12:06:59.772Z,2.80
2018-04-29T12:09:27.409Z,2.97
2018-04-29T12:11:54.932Z,2.00
2018-04-29T12:14:22.454Z,2.80
2018-04-29T12:16:49.983Z,2.93
2018-04-29T12:19:17.512Z,2.47
2018-04-29T12:21:45.031Z,2.30
2018-04-29T12:24:12.543Z,2.87
2018-04-29T12:26:40.048Z,2.37
2018-04-29T12:29:07.575Z,2.70
2018-04-29T12:31:35.108Z,2.70
2018-04-29T12:34:02.634Z,2.87
2018-04-29T12:36:30.153Z,3.10
2018-04-29T12:38:57.686Z,2.73
2018-04-29T12:41:25.209Z,3.07
2018-04-29T12:43:52.735Z,2.87
2018-04-29T12:46:20.264Z,2.93
2018-04-29T12:48:47.784Z,2.90
2018-04-29T12:51:15.300Z,2.60
2018-04-29T12:53:42.818Z,2.40
2018-04-29T12:56:10.347Z,2.57
2018-04-29T12:58:37.866Z,2.60
2018-04-29T13:01:05.418Z,2.77
2018-04-29T13:03:32.938Z,2.90
2018-04-29T13:06:00.452Z,2.67
2018-04-29T13:08:27.972Z,2.63
2018-04-29T13:10:55.505Z,2.43
2018-04-29T13:13:23.031Z,2.77
2018-04-29T13:15:50.550Z,2.40
2018-04-29T13:18:18.084Z,2.30
2018-04-29T13:20:45.603Z,2.13
2018-04-29T13:23:13.119Z,2.30
2018-04-29T13:25:40.635Z,2.47
2018-04-29T13:28:08.169Z,2.30
2018-04-29T13:30:35.704Z,2.77
2018-04-29T13:33:03.229Z,2.20
2018-04-29T13:35:30.760Z,2.60
2018-04-29T13:37:58.277Z,2.50
2018-04-29T13:40:25.805Z,2.40
2018-04-29T13:42:53.336Z,2.60
2018-04-29T13:45:20.857Z,2.67
2018-04-29T13:47:49.134Z,2.70
2018-04-29T13:50:16.650Z,3.03
2018-04-29T13:52:44.175Z,2.50
2018-04-29T13:55:11.770Z,2.47
2018-04-29T13:57:39.297Z,2.90
2018-04-29T14:00:06.820Z,2.27
2018-04-29T14:02:34.349Z,2.77
2018-04-29T14:05:01.910Z,2.50
2018-04-29T14:07:29.447Z,2.70
2018-04-29T14:09:56.969Z,2.60
2018-04-29T14:12:24.481Z,2.70
2018-04-29T14:14:51.994Z,2.97
2018-04-29T14:17:19.577Z,2.67
2018-04-29T14:19:47.120Z,2.47
2018-04-29T14:22:14.704Z,2.60
2018-04-29T14:24:42.213Z,2.63
2018-04-29T14:27:09.736Z,2.83
2018-04-29T14:29:37.258Z,2.60
2018-04-29T14:32:04.787Z,2.77
2018-04-29T14:34:32.303Z,2.77
2018-04-29T14:36:59.874Z,2.70
2018-04-29T14:39:27.397Z,2.87
2018-04-29T14:41:54.919Z,2.53
2018-04-29T14:44:22.455Z,3.50
2018-04-29T14:46:49.970Z,3.00
2018-04-29T14:49:17.522Z,3.10
2018-04-29T14:51:45.059Z,3.30
2018-04-29T14:54:12.595Z,2.83
2018-04-29T14:56:40.113Z,2.77
2018-04-29T14:59:07.695Z,2.87
2018-04-29T15:01:35.206Z,3.00
2018-04-29T15:04:02.736Z,4.00
2018-04-29T15:06:30.303Z,3.20
2018-04-29T15:08:57.820Z,2.97
2018-04-29T15:11:25.340Z,2.83
2018-04-29T15:13:52.866Z,3.17
2018-04-29T15:16:20.396Z,3.20
2018-04-29T15:18:59.705Z,3.00
2018-04-29T15:21:27.225Z,2.70
2018-04-29T15:23:54.764Z,2.80
2018-04-29T15:26:22.279Z,3.20
2018-04-29T15:28:49.903Z,3.20
2018-04-29T15:31:17.433Z,2.70
2018-04-29T15:33:44.965Z,3.20
2018-04-29T15:36:12.509Z,3.37
2018-04-29T15:38:40.128Z,4.37
2018-04-29T15:41:07.658Z,3.00
2018-04-29T15:43:35.192Z,2.80
2018-04-29T15:46:02.826Z,3.47
2018-04-29T15:48:30.383Z,3.40
2018-04-29T15:50:57.915Z,3.23
2018-04-29T15:53:25.453Z,3.07
2018-04-29T15:55:52.988Z,3.00
2018-04-29T15:58:20.627Z,3.17
2018-04-29T16:00:48.150Z,3.03
2018-04-29T16:03:15.672Z,3.40
2018-04-29T16:05:43.299Z,3.17
2018-04-29T16:08:10.820Z,2.93
2018-04-29T16:10:38.349Z,3.43
2018-04-29T16:13:05.868Z,3.00
2018-04-29T16:15:33.383Z,2.80
2018-04-29T16:18:01.001Z,3.17
2018-04-29T16:20:28.561Z,3.23
2018-04-29T16:22:56.102Z,3.00
2018-04-29T16:25:23.627Z,3.23
2018-04-29T16:27:51.153Z,3.33
2018-04-29T16:30:18.664Z,2.83
2018-04-29T16:32:46.183Z,2.83
2018-04-29T16:35:13.827Z,3.40
2018-04-29T16:37:41.344Z,3.00
2018-04-29T16:40:08.920Z,3.33
2018-04-29T16:42:36.456Z,3.17
2018-04-29T16:45:04.059Z,3.00
2018-04-29T16:47:31.609Z,3.17
2018-04-29T16:49:59.180Z,3.00
2018-04-29T16:52:26.734Z,3.13
2018-04-29T16:54:54.256Z,2.90
2018-04-29T16:57:21.822Z,3.50
2018-04-29T16:59:49.403Z,3.50
2018-04-29T17:02:16.962Z,3.30
2018-04-29T17:04:44.539Z,3.83
2018-04-29T17:07:12.071Z,3.50
2018-04-29T17:09:39.584Z,3.10
2018-04-29T17:12:07.099Z,3.23
2018-04-29T17:14:34.619Z,3.20
2018-04-29T17:17:02.186Z,3.10
2018-04-29T17:19:29.801Z,3.13
2018-04-29T17:21:57.358Z,3.10
2018-04-29T17:24:24.917Z,3.30
2018-04-29T17:26:52.440Z,3.23
2018-04-29T17:29:20.056Z,3.40
2018-04-29T17:31:47.517Z,3.10
2018-04-29T17:34:15.049Z,3.20
2018-04-29T17:36:42.580Z,3.10
2018-04-29T17:39:10.140Z,3.37
2018-04-29T17:41:37.652Z,3.30
2018-04-29T17:44:05.279Z,2.80
2018-04-29T17:46:32.855Z,3.10
2018-04-29T17:49:00.386Z,3.20
2018-04-29T17:51:27.912Z,3.47
2018-04-29T17:53:55.429Z,3.50
2018-04-29T17:56:23.003Z,3.23
2018-04-29T17:58:50.521Z,2.97
2018-04-29T18:01:18.045Z,3.20
2018-04-29T18:03:45.668Z,3.30
2018-04-29T18:06:13.316Z,3.70
2018-04-29T18:08:40.890Z,3.80
2018-04-29T18:11:08.450Z,3.60
2018-04-29T18:13:35.999Z,3.73
2018-04-29T18:16:03.532Z,3.47
2018-04-29T18:18:31.137Z,3.37
2018-04-29T18:20:58.653Z,3.50
2018-04-29T18:23:26.177Z,3.90
2018-04-29T18:25:53.811Z,4.03
2018-04-29T18:28:21.331Z,4.77
2018-04-29T18:30:48.855Z,3.93
2018-04-29T18:33:16.380Z,4.30
2018-04-29T18:35:43.904Z,4.60
2018-04-29T18:38:11.431Z,3.80
2018-04-29T18:40:38.971Z,4.03
2018-04-29T18:43:06.480Z,4.43
2018-04-29T18:45:34.094Z,3.93
2018-04-29T18:48:01.549Z,3.73
2018-04-29T18:50:29.100Z,4.10
2018-04-29T18:52:56.609Z,3.93
2018-04-29T18:55:24.129Z,3.57
2018-04-29T18:57:51.666Z,3.73
2018-04-29T19:00:19.188Z,3.67
2018-04-29T19:02:46.706Z,4.10
2018-04-29T19:05:14.219Z,4.20
2018-04-29T19:07:41.733Z,3.53
2018-04-29T19:10:09.253Z,4.00
2018-04-29T19:12:36.781Z,4.60
2018-04-29T19:15:04.304Z,3.90
2018-04-29T19:17:31.824Z,3.83
2018-04-29T19:19:59.354Z,4.03
2018-04-29T19:22:26.875Z,4.07
2018-04-29T19:24:54.397Z,3.60
2018-04-29T19:27:22.020Z,3.70
2018-04-29T19:29:49.557Z,3.50
2018-04-29T19:32:17.090Z,3.80
2018-04-29T19:34:44.622Z,3.90
2018-04-29T19:37:12.158Z,3.60
2018-04-29T19:39:39.691Z,3.43
2018-04-29T19:42:07.211Z,4.07
2018-04-29T19:44:34.736Z,3.67
2018-04-29T19:47:02.288Z,3.90
2018-04-29T19:49:29.866Z,4.23
2018-04-29T19:51:57.480Z,3.63
2018-04-29T19:54:25.013Z,3.47
2018-04-29T19:56:52.543Z,3.40
2018-04-29T19:59:20.074Z,3.40
2018-04-29T20:01:47.615Z,3.90
2018-04-29T20:04:15.158Z,3.80
2018-04-29T20:06:42.683Z,3.83
2018-04-29T20:09:10.210Z,3.43
2018-04-29T20:11:37.818Z,3.70
2018-04-29T20:14:05.583Z,3.93
2018-04-29T20:16:33.109Z,3.60
2018-04-29T20:19:00.650Z,3.37
2018-04-29T20:21:28.223Z,3.70
2018-04-29T20:23:55.795Z,3.57
2018-04-29T20:26:23.300Z,3.63
2018-04-29T20:28:50.823Z,3.93
2018-04-29T20:31:18.354Z,3.67
2018-04-29T20:33:45.867Z,3.90
2018-04-29T20:36:13.432Z,3.60
2018-04-29T20:38:40.960Z,3.83
2018-04-29T20:41:08.663Z,4.63
2018-04-29T20:43:36.373Z,3.87
2018-04-29T20:46:03.888Z,3.60
2018-04-29T20:48:31.489Z,3.67
2018-04-29T20:50:58.966Z,3.17
2018-04-29T20:53:26.491Z,3.90
2018-04-29T20:55:54.024Z,3.73
2018-04-29T20:58:21.624Z,3.60
2018-04-29T21:00:49.221Z,3.80
2018-04-29T21:03:16.743Z,4.10
2018-04-29T21:05:44.260Z,3.93
2018-04-29T21:08:11.779Z,3.43
2018-04-29T21:10:39.313Z,4.07
2018-04-29T21:13:06.835Z,3.90
2018-04-29T21:15:34.404Z,3.47
2018-04-29T21:18:01.996Z,4.13
2018-04-29T21:20:29.559Z,4.00
2018-04-29T21:22:57.113Z,3.83
2018-04-29T21:25:24.657Z,4.10
2018-04-29T21:27:52.168Z,4.03
2018-04-29T21:30:19.676Z,4.60
2018-04-29T21:32:47.210Z,4.10
2018-04-29T21:35:14.728Z,4.20
2018-04-29T21:37:42.285Z,3.87
2018-04-29T21:40:09.855Z,4.23
2018-04-29T21:42:37.433Z,4.70
2018-04-29T21:45:05.000Z,4.03
2018-04-29T21:47:32.532Z,3.83
2018-04-29T21:50:00.048Z,4.50
2018-04-29T21:52:27.559Z,4.50
2018-04-29T21:54:55.082Z,4.13
2018-04-29T21:57:22.610Z,4.67
2018-04-29T21:59:50.204Z,5.37
2018-04-29T22:02:17.748Z,4.50
2018-04-29T22:04:45.351Z,5.00
2018-04-29T22:07:12.925Z,4.43
2018-04-29T22:09:40.509Z,4.47
2018-04-29T22:12:08.040Z,4.77
2018-04-29T22:14:35.565Z,4.60
2018-04-29T22:17:03.084Z,4.93
2018-04-29T22:19:30.622Z,4.67
2018-04-29T22:21:58.174Z,4.90
2018-04-29T22:24:25.768Z,4.90
2018-04-29T22:26:53.394Z,4.87
2018-04-29T22:29:20.967Z,5.00
2018-04-29T22:31:48.501Z,5.10
2018-04-29T22:34:16.011Z,4.93
2018-04-29T22:36:43.532Z,5.20
2018-04-29T22:39:11.058Z,4.90
2018-04-29T22:41:38.577Z,5.33
2018-04-29T22:44:06.212Z,6.03
2018-04-29T22:46:33.748Z,5.43
2018-04-29T22:49:01.308Z,5.10
2018-04-29T22:51:28.828Z,5.63
2018-04-29T22:53:56.409Z,5.83
2018-04-29T22:56:23.928Z,5.40
2018-04-29T22:58:51.456Z,5.57
2018-04-29T23:01:18.980Z,5.30
2018-04-29T23:03:46.494Z,5.40
2018-04-29T23:06:14.023Z,5.20
2018-04-29T23:08:41.541Z,4.90
2018-04-29T23:11:09.063Z,5.80
2018-04-29T23:13:36.595Z,5.93
2018-04-29T23:16:04.107Z,5.43
2018-04-29T23:18:31.624Z,5.80
2018-04-29T23:20:59.143Z,6.00
2018-04-29T23:23:26.729Z,5.70
2018-04-29T23:25:54.288Z,5.57
2018-04-29T23:28:21.851Z,5.43
2018-04-29T23:30:49.380Z,5.40
2018-04-29T23:33:16.896Z,5.80
2018-04-29T23:35:44.395Z,5.40
2018-04-29T23:38:11.985Z,6.20
2018-04-29T23:40:39.504Z,6.40
2018-04-29T23:43:07.028Z,6.60
2018-04-29T23:45:34.540Z,6.30
2018-04-29T23:48:02.128Z,6.43
2018-04-29T23:50:29.671Z,6.03
2018-04-29T23:52:57.243Z,6.60
2018-04-29T23:55:24.774Z,5.53
2018-04-29T23:57:52.293Z,6.93
